Potiragua, Brazil
Current Conditions -  °F | °C
As of 1:00 PM on Friday 31 Oct 2014 (Local Time) from SBIL Reporting Station
Broken Clouds Broken Clouds  
Wind Chill: 82°   Ceiling: 10000
Heat Index: 87°   Visibility: 6mi
Dew Point: 72°   Wind: 16mph
Humidity: 70%   Direction: 90°E
Pressure: 30"   Gusts: 28mph
Location:  15.59°S, 39.88°W
Report Text: SBIL 311600Z 09014G24KT 9999 FEW025 FEW030TCU BKN100 28/22 Q1016
Loading
Personal Weather Stations






























Interactive Weather Map
Tropical Storm Tracking
New forecast layout! Learn more

10-Day Weather Forecast

Advertisements
Track Severe Weather on mobile